Cunard, West Virginia
Current Conditions -  °F | °C
As of 9:51 AM on Saturday 25 Oct 2014 (Local Time) from KBKW Reporting Station
Clear Clear  
Wind Chill: 46°   Ceiling: Unl
Heat Index: 49°   Visibility: 10mi
Dew Point: 40°   Wind: 7mph
Humidity: 71%   Direction: 200°SSW
Pressure: 30.06"   Gusts: NA
Location:  38.0317°N, 81.0282°W
Report Text: KBKW 251351Z AUTO 20006KT 10SM CLR 09/04 A3006 RMK AO2 SLP186 T00940044 TSNO
Loading
Personal Weather Stations






























Interactive Weather Map
Tropical Storm Tracking
New forecast layout! Learn more

10-Day Weather Forecast

Advertisements
Track Severe Weather on mobile